Wawaka, Indiana
Current Conditions -  °F | °C
As of 3:53 AM on Monday 22 Dec 2014 (Local Time) from KGSH Reporting Station
Haze Haze  
Wind Chill: 21°   Ceiling: Unl
Heat Index: 28°   Visibility: 6mi
Dew Point: 24°   Wind: 7mph
Humidity: 85%   Direction: 120°ESE
Pressure: 30.03"   Gusts: NA
Location:  41.46°N, 85.48°W
Report Text: KGSH 220853Z AUTO 12006KT 6SM BR CLR M02/M04 A3003 RMK AO2 SLP179 T10221044 58014
Loading
Personal Weather Stations






























Interactive Weather Map New forecast layout! Learn more

10-Day Weather Forecast

Advertisements
Track Severe Weather on mobile